createdAt,value
2023-05-25T00:03:12.782Z,100873.66
2023-05-25T00:07:16.193Z,100862.63
2023-05-25T00:11:19.671Z,100858.34
2023-05-25T00:15:21.891Z,100866.81
2023-05-25T00:19:25.085Z,100869.22
2023-05-25T00:23:27.243Z,100878.13
2023-05-25T00:27:30.328Z,100896.69
2023-05-25T00:31:33.571Z,100893.84
2023-05-25T00:35:35.919Z,100892.56
2023-05-25T00:39:38.081Z,100889.91
2023-05-25T00:43:40.476Z,100889.31
2023-05-25T00:47:44.345Z,100892.34
2023-05-25T00:51:48.402Z,100880.19
2023-05-25T00:55:57.982Z,100889.47
2023-05-25T01:00:02.286Z,100897.19
2023-05-25T01:04:07.469Z,100910.09
2023-05-25T01:08:12.109Z,100915.28
2023-05-25T01:12:19.186Z,100907.56
2023-05-25T01:16:21.818Z,100908.19
2023-05-25T01:20:24.199Z,100899.34
2023-05-25T01:24:26.653Z,100903.78
2023-05-25T01:28:32.762Z,100907.53
2023-05-25T01:32:37.351Z,100906.72
2023-05-25T01:36:39.698Z,100903.25
2023-05-25T01:40:41.860Z,100901.75
2023-05-25T01:44:44.984Z,100894.59
2023-05-25T01:48:55.942Z,100911.47
2023-05-25T01:53:12.868Z,100905.88
2023-05-25T01:57:17.905Z,100901.78
2023-05-25T02:01:22.718Z,100898.06
2023-05-25T02:05:24.990Z,100909.50
2023-05-25T02:09:27.413Z,100913.72
2023-05-25T02:13:29.607Z,100896.41
2023-05-25T02:17:32.113Z,100890.03
2023-05-25T02:21:37.679Z,100892.72
2023-05-25T02:25:39.823Z,100901.78
2023-05-25T02:29:41.946Z,100902.41
2023-05-25T02:33:44.168Z,100899.56
2023-05-25T02:37:47.292Z,100906.13
2023-05-25T02:41:50.969Z,100912.03
2023-05-25T02:45:54.803Z,100906.25
2023-05-25T02:49:56.904Z,100912.25
2023-05-25T02:53:59.857Z,100922.81
2023-05-25T02:58:02.244Z,100923.66
2023-05-25T03:02:21.149Z,100919.09
2023-05-25T03:06:23.495Z,100915.63
2023-05-25T03:10:30.144Z,100914.03
2023-05-25T03:14:32.647Z,100920.50
2023-05-25T03:18:39.554Z,100923.03
2023-05-25T03:22:43.355Z,100926.50
2023-05-25T03:26:45.535Z,100937.47
2023-05-25T03:30:48.019Z,100941.63
2023-05-25T03:34:51.514Z,100937.59
2023-05-25T03:38:54.821Z,100944.47
2023-05-25T03:42:57.436Z,100948.63
2023-05-25T03:46:59.713Z,100942.63
2023-05-25T03:51:02.085Z,100935.00
2023-05-25T03:55:05.292Z,100935.72
2023-05-25T03:59:07.579Z,100942.06
2023-05-25T04:03:11.047Z,100937.94
2023-05-25T04:07:13.665Z,100943.75
2023-05-25T04:11:15.952Z,100942.94
2023-05-25T04:15:18.145Z,100958.22
2023-05-25T04:19:29.398Z,100960.00
2023-05-25T04:23:34.121Z,100957.50
2023-05-25T04:27:36.741Z,100956.00
2023-05-25T04:31:41.150Z,100950.84
2023-05-25T04:35:50.550Z,100944.41
2023-05-25T04:39:54.121Z,100945.88
2023-05-25T04:44:05.758Z,100952.25
2023-05-25T04:48:13.937Z,100945.56
2023-05-25T04:52:16.249Z,100941.13
2023-05-25T04:56:22.298Z,100945.06
2023-05-25T05:00:24.981Z,100955.63
2023-05-25T05:04:29.244Z,100956.41
2023-05-25T05:08:31.991Z,100969.41
2023-05-25T05:12:34.298Z,100969.19
2023-05-25T05:16:37.576Z,100961.75
2023-05-25T05:20:40.022Z,100965.34
2023-05-25T05:24:42.443Z,100958.25
2023-05-25T05:28:47.028Z,100970.19
2023-05-25T05:32:49.278Z,100971.28
2023-05-25T05:36:58.067Z,100963.44
2023-05-25T05:41:03.113Z,100974.81
2023-05-25T05:45:06.004Z,100977.56
2023-05-25T05:49:08.095Z,100985.06
2023-05-25T05:53:11.059Z,100978.06
2023-05-25T05:57:13.339Z,100986.31
2023-05-25T06:01:18.392Z,100986.19
2023-05-25T06:05:21.319Z,100991.41
2023-05-25T06:09:23.816Z,101000.22
2023-05-25T06:13:26.211Z,100998.91
2023-05-25T06:17:29.783Z,101006.19
2023-05-25T06:21:31.960Z,101012.00
2023-05-25T06:25:34.036Z,101015.22
2023-05-25T06:29:36.083Z,101026.09
2023-05-25T06:33:38.193Z,101024.25
2023-05-25T06:37:41.284Z,101020.66
2023-05-25T06:41:43.636Z,101023.97
2023-05-25T06:45:46.219Z,101023.75
2023-05-25T06:49:49.966Z,101017.19
2023-05-25T06:53:52.395Z,101025.84
2023-05-25T06:57:54.132Z,101026.69
2023-05-25T07:01:56.416Z,101028.25
2023-05-25T07:05:58.644Z,101030.25
2023-05-25T07:10:03.630Z,101026.69
2023-05-25T07:14:05.975Z,101030.81
2023-05-25T07:18:12.361Z,101024.91
2023-05-25T07:22:17.005Z,101024.22
2023-05-25T07:26:22.926Z,101028.13
2023-05-25T07:30:25.049Z,101026.66
2023-05-25T07:34:28.002Z,101025.31
2023-05-25T07:38:30.254Z,101024.00
2023-05-25T07:42:34.440Z,101035.16
2023-05-25T07:46:36.635Z,101042.31
2023-05-25T07:50:38.740Z,101046.06
2023-05-25T07:54:41.141Z,101040.44
2023-05-25T07:58:43.238Z,101039.84
2023-05-25T08:02:45.938Z,101045.50
2023-05-25T08:06:48.136Z,101050.09
2023-05-25T08:10:50.467Z,101038.91
2023-05-25T08:14:54.084Z,101046.13
2023-05-25T08:18:56.233Z,101059.00
2023-05-25T08:22:59.714Z,101069.09
2023-05-25T08:27:02.722Z,101064.50
2023-05-25T08:31:04.926Z,101083.56
2023-05-25T08:35:08.052Z,101087.56
2023-05-25T08:39:10.286Z,101096.84
2023-05-25T08:43:12.374Z,101102.66
2023-05-25T08:47:16.313Z,101108.56
2023-05-25T08:51:18.950Z,101119.69
2023-05-25T08:55:23.977Z,101114.13
2023-05-25T08:59:31.660Z,101083.53
2023-05-25T09:03:35.070Z,101112.91
2023-05-25T09:07:37.563Z,101124.78
2023-05-25T09:11:44.948Z,101134.53
2023-05-25T09:15:48.889Z,101132.03
2023-05-25T09:19:51.364Z,101148.28
2023-05-25T09:23:53.610Z,101156.69
2023-05-25T09:27:59.395Z,101148.69
2023-05-25T09:32:07.087Z,101148.44
2023-05-25T09:36:09.562Z,101153.44
2023-05-25T09:40:11.964Z,101150.34
2023-05-25T09:44:14.011Z,101144.66
2023-05-25T09:48:16.239Z,101162.84
2023-05-25T09:52:18.497Z,101156.03
2023-05-25T09:56:21.842Z,101152.00
2023-05-25T10:00:24.927Z,101158.09
2023-05-25T10:04:27.187Z,101164.13
2023-05-25T10:08:29.896Z,101164.19
2023-05-25T10:12:32.665Z,101161.81
2023-05-25T10:16:35.188Z,101171.69
2023-05-25T10:20:38.339Z,101162.38
2023-05-25T10:24:52.114Z,101163.84
2023-05-25T10:29:01.391Z,101171.22
2023-05-25T10:33:03.736Z,101156.53
2023-05-25T10:37:07.535Z,101161.38
2023-05-25T10:41:11.277Z,101155.94
2023-05-25T10:45:13.973Z,101152.69
2023-05-25T10:49:26.530Z,101153.72
2023-05-25T10:53:28.711Z,101154.22
2023-05-25T10:57:31.205Z,101145.81
2023-05-25T11:01:33.703Z,101142.25
2023-05-25T11:05:38.363Z,101146.75
2023-05-25T11:09:44.934Z,101139.09
2023-05-25T11:13:47.733Z,101129.50
2023-05-25T11:18:14.627Z,101139.59
2023-05-25T11:22:35.221Z,101148.84
2023-05-25T11:26:37.537Z,101144.22
2023-05-25T11:30:42.087Z,101141.09
2023-05-25T11:34:46.837Z,101140.44
2023-05-25T11:39:02.399Z,101151.59
2023-05-25T11:43:09.659Z,101143.28
2023-05-25T11:47:18.929Z,101139.31
2023-05-25T11:51:23.871Z,101144.31
2023-05-25T11:55:26.115Z,101142.78
2023-05-25T11:59:32.207Z,101144.34
2023-05-25T12:03:34.869Z,101139.38
2023-05-25T12:07:43.896Z,101149.16
2023-05-25T12:11:46.068Z,101145.38
2023-05-25T12:15:48.715Z,101132.69
2023-05-25T12:19:51.215Z,101131.75
2023-05-25T12:23:54.684Z,101119.38
2023-05-25T12:28:13.021Z,101121.97
2023-05-25T12:32:15.494Z,101119.16
2023-05-25T12:36:18.052Z,101119.56
2023-05-25T12:40:21.117Z,101108.63
2023-05-25T12:44:27.253Z,101098.53
2023-05-25T12:48:29.492Z,101101.09
2023-05-25T12:52:39.461Z,101089.50
2023-05-25T12:56:55.616Z,101094.22
2023-05-25T13:00:57.660Z,101087.34
2023-05-25T13:04:59.778Z,101073.06
2023-05-25T13:09:02.584Z,101064.69
2023-05-25T13:13:04.907Z,101065.19
2023-05-25T13:17:07.144Z,101061.31
2023-05-25T13:21:10.079Z,101055.09
2023-05-25T13:25:13.070Z,101048.41
2023-05-25T13:29:15.364Z,101046.06
2023-05-25T13:33:17.460Z,101042.06
2023-05-25T13:37:19.908Z,101033.94
2023-05-25T13:41:22.157Z,101033.91
2023-05-25T13:45:24.324Z,101035.66
2023-05-25T13:49:26.524Z,101034.81
2023-05-25T13:53:28.814Z,101029.75
2023-05-25T13:57:30.864Z,101023.91
2023-05-25T14:01:33.272Z,101030.09
2023-05-25T14:05:35.389Z,101025.75
2023-05-25T14:09:37.468Z,101024.84
2023-05-25T14:13:39.552Z,101023.06
2023-05-25T14:17:41.683Z,101021.66
2023-05-25T14:21:43.887Z,101018.41
2023-05-25T14:25:47.341Z,101016.09
2023-05-25T14:29:52.269Z,101012.91
2023-05-25T14:33:54.371Z,101010.34
2023-05-25T14:37:56.514Z,101014.28
2023-05-25T14:41:58.676Z,101007.97
2023-05-25T14:46:00.782Z,101014.13
2023-05-25T14:50:03.047Z,101005.63
2023-05-25T14:54:07.230Z,101014.00
2023-05-25T14:58:10.126Z,101008.16
2023-05-25T15:02:12.471Z,101004.91
2023-05-25T15:06:14.633Z,101003.34
2023-05-25T15:10:16.797Z,101015.38
2023-05-25T15:14:18.876Z,101019.97
2023-05-25T15:18:21.128Z,101017.03
2023-05-25T15:22:23.187Z,101009.66
2023-05-25T15:26:26.392Z,101014.19
2023-05-25T15:30:28.447Z,101006.59
2023-05-25T15:34:30.742Z,101010.00
2023-05-25T15:38:32.902Z,101004.56
2023-05-25T15:42:37.212Z,101002.91
2023-05-25T15:46:41.003Z,101005.75
2023-05-25T15:50:43.232Z,101003.56
2023-05-25T15:54:45.347Z,101006.84
2023-05-25T15:58:49.314Z,100999.56
2023-05-25T16:02:51.492Z,100993.31
2023-05-25T16:06:53.634Z,100996.22
2023-05-25T16:10:55.866Z,100990.22
2023-05-25T16:14:58.152Z,100991.00
2023-05-25T16:19:00.307Z,101002.00
2023-05-25T16:23:02.780Z,100999.56
2023-05-25T16:27:05.038Z,100998.28
2023-05-25T16:31:07.628Z,100992.41
2023-05-25T16:35:10.413Z,100998.00
2023-05-25T16:39:12.467Z,100993.13
2023-05-25T16:43:14.619Z,100999.75
2023-05-25T16:47:17.091Z,100995.91
2023-05-25T16:51:19.154Z,100989.69
2023-05-25T16:55:21.517Z,100989.09
2023-05-25T16:59:23.944Z,100994.81
2023-05-25T17:03:26.392Z,100988.13
2023-05-25T17:07:30.116Z,100995.41
2023-05-25T17:11:32.504Z,100994.78
2023-05-25T17:15:34.846Z,100999.91
2023-05-25T17:19:37.523Z,100990.22
2023-05-25T17:23:39.835Z,100995.13
2023-05-25T17:27:42.164Z,100995.63
2023-05-25T17:31:47.740Z,100995.09
2023-05-25T17:35:50.891Z,100999.06
2023-05-25T17:39:53.000Z,100996.31
2023-05-25T17:43:55.248Z,100991.91
2023-05-25T17:47:58.377Z,101002.31
2023-05-25T17:52:00.511Z,100998.59
2023-05-25T17:56:02.998Z,101001.56
2023-05-25T18:00:05.950Z,101007.09
2023-05-25T18:04:14.925Z,101002.78
2023-05-25T18:08:17.299Z,101005.19
2023-05-25T18:12:19.615Z,101005.81
2023-05-25T18:16:22.673Z,100993.13
2023-05-25T18:20:24.728Z,101008.47
2023-05-25T18:24:27.997Z,101009.63
2023-05-25T18:28:31.403Z,101010.47
2023-05-25T18:32:34.027Z,101008.53
2023-05-25T18:36:36.555Z,101014.84
2023-05-25T18:40:38.328Z,101015.25
2023-05-25T18:44:41.754Z,101020.06
2023-05-25T18:48:44.197Z,101021.31
2023-05-25T18:52:50.574Z,101021.75
2023-05-25T18:56:53.580Z,101016.81
2023-05-25T19:00:55.885Z,101022.31
2023-05-25T19:04:57.966Z,101002.78
2023-05-25T19:09:00.304Z,101002.19
2023-05-25T19:13:02.726Z,101005.38
2023-05-25T19:17:05.752Z,101009.88
2023-05-25T19:21:08.814Z,101025.44
2023-05-25T19:25:11.249Z,101034.69
2023-05-25T19:29:14.203Z,101026.41
2023-05-25T19:33:16.361Z,101017.22
2023-05-25T19:37:18.749Z,100998.97
2023-05-25T19:41:21.391Z,101003.41
2023-05-25T19:45:23.814Z,101001.94
2023-05-25T19:49:26.312Z,100992.31
2023-05-25T19:53:31.279Z,100970.28
2023-05-25T19:57:33.349Z,100959.25
2023-05-25T20:01:36.415Z,100960.75
2023-05-25T20:05:38.658Z,100950.44
2023-05-25T20:09:42.857Z,100941.94
2023-05-25T20:13:46.678Z,100936.00
2023-05-25T20:17:49.064Z,100929.66
2023-05-25T20:21:51.796Z,100937.94
2023-05-25T20:25:54.241Z,100931.09
2023-05-25T20:29:57.500Z,100925.69
2023-05-25T20:33:59.757Z,100922.75
2023-05-25T20:38:02.065Z,100908.63
2023-05-25T20:42:04.564Z,100914.06
2023-05-25T20:46:08.633Z,100919.38
2023-05-25T20:50:10.949Z,100919.25
2023-05-25T20:54:13.040Z,100927.91
2023-05-25T20:58:15.102Z,100926.84
2023-05-25T21:02:17.920Z,100937.69
2023-05-25T21:06:20.890Z,100940.22
2023-05-25T21:10:23.124Z,100940.34
2023-05-25T21:14:25.261Z,100945.28
2023-05-25T21:18:27.347Z,100946.59
2023-05-25T21:22:29.379Z,100948.91
2023-05-25T21:26:31.524Z,100944.19
2023-05-25T21:30:33.756Z,100951.19
2023-05-25T21:34:35.938Z,100955.31
2023-05-25T21:38:37.919Z,100952.75
2023-05-25T21:42:41.057Z,100961.66
2023-05-25T21:46:43.337Z,100968.03
2023-05-25T21:50:45.377Z,100971.28
2023-05-25T21:54:47.502Z,100968.00
2023-05-25T21:58:49.696Z,100963.75
2023-05-25T22:02:51.829Z,100964.25
2023-05-25T22:06:56.629Z,100965.25
2023-05-25T22:10:58.752Z,100969.56
2023-05-25T22:15:00.746Z,100968.50
2023-05-25T22:19:02.908Z,100969.69
2023-05-25T22:23:05.135Z,100976.03
2023-05-25T22:27:07.589Z,100981.22
2023-05-25T22:31:09.737Z,100993.16
2023-05-25T22:35:11.804Z,100993.03
2023-05-25T22:39:13.931Z,101001.56
2023-05-25T22:43:16.662Z,101005.47
2023-05-25T22:47:18.749Z,101009.88
2023-05-25T22:51:20.802Z,101001.94
2023-05-25T22:55:23.012Z,101004.97
2023-05-25T22:59:25.042Z,101006.69
2023-05-25T23:03:27.108Z,101000.00
2023-05-25T23:07:28.933Z,101000.34
2023-05-25T23:11:30.942Z,101005.41
2023-05-25T23:15:33.264Z,101002.66
2023-05-25T23:19:35.831Z,101004.25
2023-05-25T23:23:37.972Z,100997.66
2023-05-25T23:27:40.082Z,100998.38
2023-05-25T23:31:42.209Z,101003.19
2023-05-25T23:35:44.709Z,100997.75
2023-05-25T23:39:46.847Z,101003.44
2023-05-25T23:43:48.944Z,101004.16
2023-05-25T23:47:51.384Z,101036.09
2023-05-25T23:51:53.443Z,101058.78
2023-05-25T23:55:55.542Z,101080.31
2023-05-25T23:59:57.974Z,101083.19
